sensor_id;sensor_type;location;lat;lon;timestamp;P1;durP1;ratioP1;P2;durP2;ratioP2
32639;SDS011;19049;52.524;11.468;2023-05-24T00:01:33;11.43;;;3.37;;
32639;SDS011;19049;52.524;11.468;2023-05-24T00:04:01;11.53;;;2.90;;
32639;SDS011;19049;52.524;11.468;2023-05-24T00:06:27;8.27;;;2.23;;
32639;SDS011;19049;52.524;11.468;2023-05-24T00:08:53;8.20;;;2.30;;
32639;SDS011;19049;52.524;11.468;2023-05-24T00:11:19;7.50;;;2.57;;
32639;SDS011;19049;52.524;11.468;2023-05-24T00:13:46;12.83;;;3.30;;
32639;SDS011;19049;52.524;11.468;2023-05-24T00:16:12;9.90;;;2.73;;
32639;SDS011;19049;52.524;11.468;2023-05-24T00:18:38;12.93;;;3.40;;
32639;SDS011;19049;52.524;11.468;2023-05-24T00:21:08;10.97;;;2.67;;
32639;SDS011;19049;52.524;11.468;2023-05-24T00:23:36;14.93;;;3.30;;
32639;SDS011;19049;52.524;11.468;2023-05-24T00:26:02;10.77;;;3.53;;
32639;SDS011;19049;52.524;11.468;2023-05-24T00:28:28;22.53;;;4.13;;
32639;SDS011;19049;52.524;11.468;2023-05-24T00:30:55;13.90;;;3.90;;
32639;SDS011;19049;52.524;11.468;2023-05-24T00:33:21;9.50;;;3.43;;
32639;SDS011;19049;52.524;11.468;2023-05-24T00:35:47;16.20;;;3.10;;
32639;SDS011;19049;52.524;11.468;2023-05-24T00:38:13;13.83;;;3.20;;
32639;SDS011;19049;52.524;11.468;2023-05-24T00:40:39;14.27;;;3.63;;
32639;SDS011;19049;52.524;11.468;2023-05-24T00:43:05;13.00;;;2.97;;
32639;SDS011;19049;52.524;11.468;2023-05-24T00:45:31;13.90;;;3.43;;
32639;SDS011;19049;52.524;11.468;2023-05-24T00:47:57;17.73;;;4.20;;
32639;SDS011;19049;52.524;11.468;2023-05-24T00:50:23;15.13;;;3.70;;
32639;SDS011;19049;52.524;11.468;2023-05-24T00:52:49;11.47;;;3.10;;
32639;SDS011;19049;52.524;11.468;2023-05-24T00:55:15;10.83;;;3.40;;
32639;SDS011;19049;52.524;11.468;2023-05-24T00:57:41;12.27;;;3.60;;
32639;SDS011;19049;52.524;11.468;2023-05-24T01:00:07;10.77;;;3.53;;
32639;SDS011;19049;52.524;11.468;2023-05-24T01:02:35;11.70;;;3.60;;
32639;SDS011;19049;52.524;11.468;2023-05-24T01:05:01;20.40;;;3.93;;
32639;SDS011;19049;52.524;11.468;2023-05-24T01:10:30;20.47;;;4.20;;
32639;SDS011;19049;52.524;11.468;2023-05-24T01:15:58;16.40;;;4.00;;
32639;SDS011;19049;52.524;11.468;2023-05-24T01:18:46;15.93;;;3.63;;
32639;SDS011;19049;52.524;11.468;2023-05-24T01:24:17;15.33;;;3.80;;
32639;SDS011;19049;52.524;11.468;2023-05-24T01:27:06;10.27;;;3.67;;
32639;SDS011;19049;52.524;11.468;2023-05-24T01:29:35;18.47;;;4.40;;
32639;SDS011;19049;52.524;11.468;2023-05-24T01:32:02;16.07;;;3.90;;
32639;SDS011;19049;52.524;11.468;2023-05-24T01:34:28;21.83;;;4.20;;
32639;SDS011;19049;52.524;11.468;2023-05-24T01:36:54;14.77;;;3.30;;
32639;SDS011;19049;52.524;11.468;2023-05-24T01:39:20;12.70;;;3.27;;
32639;SDS011;19049;52.524;11.468;2023-05-24T01:42:07;14.90;;;3.63;;
32639;SDS011;19049;52.524;11.468;2023-05-24T01:48:00;10.07;;;3.13;;
32639;SDS011;19049;52.524;11.468;2023-05-24T01:50:48;12.60;;;3.67;;
32639;SDS011;19049;52.524;11.468;2023-05-24T01:53:19;12.37;;;2.77;;
32639;SDS011;19049;52.524;11.468;2023-05-24T01:55:47;10.63;;;3.10;;
32639;SDS011;19049;52.524;11.468;2023-05-24T01:58:15;14.67;;;2.73;;
32639;SDS011;19049;52.524;11.468;2023-05-24T02:00:41;8.73;;;2.97;;
32639;SDS011;19049;52.524;11.468;2023-05-24T02:03:09;9.90;;;3.00;;
32639;SDS011;19049;52.524;11.468;2023-05-24T02:05:35;17.90;;;3.60;;
32639;SDS011;19049;52.524;11.468;2023-05-24T02:08:02;14.23;;;3.67;;
32639;SDS011;19049;52.524;11.468;2023-05-24T02:10:28;9.33;;;2.50;;
32639;SDS011;19049;52.524;11.468;2023-05-24T02:12:54;9.23;;;3.27;;
32639;SDS011;19049;52.524;11.468;2023-05-24T02:15:20;10.90;;;3.00;;
32639;SDS011;19049;52.524;11.468;2023-05-24T02:17:45;11.93;;;2.80;;
32639;SDS011;19049;52.524;11.468;2023-05-24T02:20:12;9.97;;;3.03;;
32639;SDS011;19049;52.524;11.468;2023-05-24T02:22:37;8.80;;;2.63;;
32639;SDS011;19049;52.524;11.468;2023-05-24T02:25:03;9.90;;;2.50;;
32639;SDS011;19049;52.524;11.468;2023-05-24T02:27:29;16.00;;;3.80;;
32639;SDS011;19049;52.524;11.468;2023-05-24T02:29:55;14.73;;;3.67;;
32639;SDS011;19049;52.524;11.468;2023-05-24T02:32:21;14.87;;;3.17;;
32639;SDS011;19049;52.524;11.468;2023-05-24T02:34:47;8.80;;;2.83;;
32639;SDS011;19049;52.524;11.468;2023-05-24T02:37:13;15.17;;;3.37;;
32639;SDS011;19049;52.524;11.468;2023-05-24T02:39:39;11.93;;;2.83;;
32639;SDS011;19049;52.524;11.468;2023-05-24T02:42:06;10.10;;;2.90;;
32639;SDS011;19049;52.524;11.468;2023-05-24T02:44:33;13.17;;;3.50;;
32639;SDS011;19049;52.524;11.468;2023-05-24T02:46:59;13.83;;;3.43;;
32639;SDS011;19049;52.524;11.468;2023-05-24T02:49:24;13.03;;;2.67;;
32639;SDS011;19049;52.524;11.468;2023-05-24T02:51:50;13.63;;;2.70;;
32639;SDS011;19049;52.524;11.468;2023-05-24T02:54:16;14.20;;;3.53;;
32639;SDS011;19049;52.524;11.468;2023-05-24T02:56:42;14.47;;;2.73;;
32639;SDS011;19049;52.524;11.468;2023-05-24T02:59:08;12.67;;;3.70;;
32639;SDS011;19049;52.524;11.468;2023-05-24T03:01:34;15.83;;;3.67;;
32639;SDS011;19049;52.524;11.468;2023-05-24T03:03:59;8.80;;;2.97;;
32639;SDS011;19049;52.524;11.468;2023-05-24T03:06:25;6.70;;;2.50;;
32639;SDS011;19049;52.524;11.468;2023-05-24T03:08:51;9.67;;;3.13;;
32639;SDS011;19049;52.524;11.468;2023-05-24T03:11:16;16.63;;;3.77;;
32639;SDS011;19049;52.524;11.468;2023-05-24T03:13:45;13.40;;;3.00;;
32639;SDS011;19049;52.524;11.468;2023-05-24T03:16:12;12.93;;;3.33;;
32639;SDS011;19049;52.524;11.468;2023-05-24T03:18:37;12.40;;;3.47;;
32639;SDS011;19049;52.524;11.468;2023-05-24T03:21:03;19.87;;;4.50;;
32639;SDS011;19049;52.524;11.468;2023-05-24T03:23:29;13.90;;;3.40;;
32639;SDS011;19049;52.524;11.468;2023-05-24T03:25:55;12.07;;;3.80;;
32639;SDS011;19049;52.524;11.468;2023-05-24T03:28:21;9.43;;;3.30;;
32639;SDS011;19049;52.524;11.468;2023-05-24T03:30:48;19.53;;;3.77;;
32639;SDS011;19049;52.524;11.468;2023-05-24T03:33:14;22.57;;;4.50;;
32639;SDS011;19049;52.524;11.468;2023-05-24T03:35:40;14.33;;;3.77;;
32639;SDS011;19049;52.524;11.468;2023-05-24T03:38:06;19.10;;;3.80;;
32639;SDS011;19049;52.524;11.468;2023-05-24T03:40:32;11.77;;;3.63;;
32639;SDS011;19049;52.524;11.468;2023-05-24T03:42:58;10.77;;;3.70;;
32639;SDS011;19049;52.524;11.468;2023-05-24T03:45:24;11.37;;;3.10;;
32639;SDS011;19049;52.524;11.468;2023-05-24T03:47:50;11.00;;;3.63;;
32639;SDS011;19049;52.524;11.468;2023-05-24T03:50:15;13.73;;;4.03;;
32639;SDS011;19049;52.524;11.468;2023-05-24T03:52:42;13.43;;;3.73;;
32639;SDS011;19049;52.524;11.468;2023-05-24T03:55:07;14.67;;;3.73;;
32639;SDS011;19049;52.524;11.468;2023-05-24T03:57:33;9.93;;;3.03;;
32639;SDS011;19049;52.524;11.468;2023-05-24T03:59:59;14.23;;;3.77;;
32639;SDS011;19049;52.524;11.468;2023-05-24T04:02:25;12.60;;;3.27;;
32639;SDS011;19049;52.524;11.468;2023-05-24T04:04:51;13.33;;;3.43;;
32639;SDS011;19049;52.524;11.468;2023-05-24T04:07:17;11.57;;;3.23;;
32639;SDS011;19049;52.524;11.468;2023-05-24T04:09:43;12.13;;;3.60;;
32639;SDS011;19049;52.524;11.468;2023-05-24T04:12:09;11.63;;;3.93;;
32639;SDS011;19049;52.524;11.468;2023-05-24T04:14:35;13.07;;;3.83;;
32639;SDS011;19049;52.524;11.468;2023-05-24T04:17:01;13.17;;;3.60;;
32639;SDS011;19049;52.524;11.468;2023-05-24T04:19:29;18.90;;;4.23;;
32639;SDS011;19049;52.524;11.468;2023-05-24T04:21:55;8.43;;;3.17;;
32639;SDS011;19049;52.524;11.468;2023-05-24T04:24:21;12.43;;;4.13;;
32639;SDS011;19049;52.524;11.468;2023-05-24T04:26:47;11.47;;;3.23;;
32639;SDS011;19049;52.524;11.468;2023-05-24T04:29:13;12.53;;;4.10;;
32639;SDS011;19049;52.524;11.468;2023-05-24T04:31:41;12.77;;;3.87;;
32639;SDS011;19049;52.524;11.468;2023-05-24T04:34:09;12.57;;;4.03;;
32639;SDS011;19049;52.524;11.468;2023-05-24T04:36:37;14.33;;;3.90;;
32639;SDS011;19049;52.524;11.468;2023-05-24T04:39:03;9.40;;;2.70;;
32639;SDS011;19049;52.524;11.468;2023-05-24T04:41:29;11.67;;;3.67;;
32639;SDS011;19049;52.524;11.468;2023-05-24T04:44:00;8.70;;;3.10;;
32639;SDS011;19049;52.524;11.468;2023-05-24T04:46:26;13.37;;;3.03;;
32639;SDS011;19049;52.524;11.468;2023-05-24T04:48:52;11.33;;;2.73;;
32639;SDS011;19049;52.524;11.468;2023-05-24T04:51:18;11.43;;;3.73;;
32639;SDS011;19049;52.524;11.468;2023-05-24T04:53:45;9.30;;;2.60;;
32639;SDS011;19049;52.524;11.468;2023-05-24T04:56:11;11.57;;;3.43;;
32639;SDS011;19049;52.524;11.468;2023-05-24T04:58:39;15.80;;;3.50;;
32639;SDS011;19049;52.524;11.468;2023-05-24T05:01:05;11.07;;;3.27;;
32639;SDS011;19049;52.524;11.468;2023-05-24T05:03:31;12.30;;;4.23;;
32639;SDS011;19049;52.524;11.468;2023-05-24T05:05:56;9.03;;;3.77;;
32639;SDS011;19049;52.524;11.468;2023-05-24T05:08:23;15.37;;;3.57;;
32639;SDS011;19049;52.524;11.468;2023-05-24T05:10:49;19.13;;;4.00;;
32639;SDS011;19049;52.524;11.468;2023-05-24T05:13:15;20.23;;;4.70;;
32639;SDS011;19049;52.524;11.468;2023-05-24T05:15:41;11.13;;;4.00;;
32639;SDS011;19049;52.524;11.468;2023-05-24T05:18:06;17.60;;;4.33;;
32639;SDS011;19049;52.524;11.468;2023-05-24T05:20:32;12.33;;;4.37;;
32639;SDS011;19049;52.524;11.468;2023-05-24T05:22:58;15.43;;;4.10;;
32639;SDS011;19049;52.524;11.468;2023-05-24T05:25:24;12.43;;;4.50;;
32639;SDS011;19049;52.524;11.468;2023-05-24T05:27:50;11.00;;;3.30;;
32639;SDS011;19049;52.524;11.468;2023-05-24T05:30:16;12.27;;;3.60;;
32639;SDS011;19049;52.524;11.468;2023-05-24T05:32:41;12.33;;;3.63;;
32639;SDS011;19049;52.524;11.468;2023-05-24T05:35:07;16.40;;;4.33;;
32639;SDS011;19049;52.524;11.468;2023-05-24T05:37:33;11.27;;;3.27;;
32639;SDS011;19049;52.524;11.468;2023-05-24T05:39:59;9.03;;;3.13;;
32639;SDS011;19049;52.524;11.468;2023-05-24T05:42:25;11.30;;;3.23;;
32639;SDS011;19049;52.524;11.468;2023-05-24T05:44:50;13.83;;;3.90;;
32639;SDS011;19049;52.524;11.468;2023-05-24T05:47:16;12.37;;;3.60;;
32639;SDS011;19049;52.524;11.468;2023-05-24T05:49:42;15.70;;;4.53;;
32639;SDS011;19049;52.524;11.468;2023-05-24T05:52:08;18.53;;;4.73;;
32639;SDS011;19049;52.524;11.468;2023-05-24T05:54:34;14.27;;;4.57;;
32639;SDS011;19049;52.524;11.468;2023-05-24T05:57:00;13.43;;;4.07;;
32639;SDS011;19049;52.524;11.468;2023-05-24T05:59:25;8.73;;;3.53;;
32639;SDS011;19049;52.524;11.468;2023-05-24T06:01:51;14.03;;;4.30;;
32639;SDS011;19049;52.524;11.468;2023-05-24T06:04:17;11.37;;;3.77;;
32639;SDS011;19049;52.524;11.468;2023-05-24T06:06:43;9.67;;;4.17;;
32639;SDS011;19049;52.524;11.468;2023-05-24T06:09:13;17.60;;;4.40;;
32639;SDS011;19049;52.524;11.468;2023-05-24T06:11:39;18.53;;;4.47;;
32639;SDS011;19049;52.524;11.468;2023-05-24T06:14:08;13.17;;;3.47;;
32639;SDS011;19049;52.524;11.468;2023-05-24T06:16:36;18.87;;;4.03;;
32639;SDS011;19049;52.524;11.468;2023-05-24T06:19:06;10.47;;;3.93;;
32639;SDS011;19049;52.524;11.468;2023-05-24T06:21:32;9.77;;;3.43;;
32639;SDS011;19049;52.524;11.468;2023-05-24T06:24:00;10.07;;;3.37;;
32639;SDS011;19049;52.524;11.468;2023-05-24T06:26:26;13.53;;;3.30;;
32639;SDS011;19049;52.524;11.468;2023-05-24T06:28:52;17.50;;;4.60;;
32639;SDS011;19049;52.524;11.468;2023-05-24T06:31:18;12.50;;;4.30;;
32639;SDS011;19049;52.524;11.468;2023-05-24T06:33:44;21.47;;;5.30;;
32639;SDS011;19049;52.524;11.468;2023-05-24T06:36:10;14.73;;;4.97;;
32639;SDS011;19049;52.524;11.468;2023-05-24T06:38:35;14.57;;;5.40;;
32639;SDS011;19049;52.524;11.468;2023-05-24T06:41:01;14.80;;;4.77;;
32639;SDS011;19049;52.524;11.468;2023-05-24T06:43:26;19.10;;;6.63;;
32639;SDS011;19049;52.524;11.468;2023-05-24T06:45:52;20.53;;;5.83;;
32639;SDS011;19049;52.524;11.468;2023-05-24T06:48:18;20.37;;;5.70;;
32639;SDS011;19049;52.524;11.468;2023-05-24T06:50:44;19.57;;;5.77;;
32639;SDS011;19049;52.524;11.468;2023-05-24T06:53:10;11.90;;;4.03;;
32639;SDS011;19049;52.524;11.468;2023-05-24T07:02:21;11.97;;;4.13;;
32639;SDS011;19049;52.524;11.468;2023-05-24T07:04:51;23.53;;;6.83;;
32639;SDS011;19049;52.524;11.468;2023-05-24T07:07:17;15.57;;;5.03;;
32639;SDS011;19049;52.524;11.468;2023-05-24T07:09:44;16.73;;;4.87;;
32639;SDS011;19049;52.524;11.468;2023-05-24T07:12:11;14.57;;;5.03;;
32639;SDS011;19049;52.524;11.468;2023-05-24T07:14:37;16.50;;;5.33;;
32639;SDS011;19049;52.524;11.468;2023-05-24T07:17:02;12.87;;;4.70;;
32639;SDS011;19049;52.524;11.468;2023-05-24T07:19:28;16.13;;;4.90;;
32639;SDS011;19049;52.524;11.468;2023-05-24T07:21:55;21.17;;;5.23;;
32639;SDS011;19049;52.524;11.468;2023-05-24T07:24:21;18.60;;;5.97;;
32639;SDS011;19049;52.524;11.468;2023-05-24T07:26:48;11.30;;;4.70;;
32639;SDS011;19049;52.524;11.468;2023-05-24T07:29:14;19.27;;;6.00;;
32639;SDS011;19049;52.524;11.468;2023-05-24T07:31:40;15.13;;;6.33;;
32639;SDS011;19049;52.524;11.468;2023-05-24T07:34:06;14.83;;;4.30;;
32639;SDS011;19049;52.524;11.468;2023-05-24T07:36:32;12.27;;;4.43;;
32639;SDS011;19049;52.524;11.468;2023-05-24T07:38:58;11.50;;;4.40;;
32639;SDS011;19049;52.524;11.468;2023-05-24T07:41:25;14.63;;;4.83;;
32639;SDS011;19049;52.524;11.468;2023-05-24T07:43:53;14.53;;;4.33;;
32639;SDS011;19049;52.524;11.468;2023-05-24T07:46:19;13.53;;;4.50;;
32639;SDS011;19049;52.524;11.468;2023-05-24T07:48:45;9.77;;;4.43;;
32639;SDS011;19049;52.524;11.468;2023-05-24T07:51:11;16.53;;;4.63;;
32639;SDS011;19049;52.524;11.468;2023-05-24T07:53:36;19.43;;;5.60;;
32639;SDS011;19049;52.524;11.468;2023-05-24T07:56:02;14.93;;;4.73;;
32639;SDS011;19049;52.524;11.468;2023-05-24T07:58:28;11.87;;;4.33;;
32639;SDS011;19049;52.524;11.468;2023-05-24T08:00:54;12.30;;;4.93;;
32639;SDS011;19049;52.524;11.468;2023-05-24T08:03:20;13.97;;;4.37;;
32639;SDS011;19049;52.524;11.468;2023-05-24T08:05:45;11.57;;;4.13;;
32639;SDS011;19049;52.524;11.468;2023-05-24T08:08:11;11.53;;;4.30;;
32639;SDS011;19049;52.524;11.468;2023-05-24T08:10:37;16.20;;;4.40;;
32639;SDS011;19049;52.524;11.468;2023-05-24T08:13:04;14.70;;;4.57;;
32639;SDS011;19049;52.524;11.468;2023-05-24T08:15:30;11.67;;;4.37;;
32639;SDS011;19049;52.524;11.468;2023-05-24T08:17:55;13.50;;;3.83;;
32639;SDS011;19049;52.524;11.468;2023-05-24T08:20:21;14.07;;;4.87;;
32639;SDS011;19049;52.524;11.468;2023-05-24T08:22:47;10.43;;;4.37;;
32639;SDS011;19049;52.524;11.468;2023-05-24T08:25:12;14.27;;;4.87;;
32639;SDS011;19049;52.524;11.468;2023-05-24T08:27:38;20.20;;;6.23;;
32639;SDS011;19049;52.524;11.468;2023-05-24T08:30:04;16.50;;;4.80;;
32639;SDS011;19049;52.524;11.468;2023-05-24T08:32:31;14.87;;;5.00;;
32639;SDS011;19049;52.524;11.468;2023-05-24T08:34:57;13.67;;;5.70;;
32639;SDS011;19049;52.524;11.468;2023-05-24T08:37:23;25.47;;;11.90;;
32639;SDS011;19049;52.524;11.468;2023-05-24T08:39:48;10.50;;;5.80;;
32639;SDS011;19049;52.524;11.468;2023-05-24T08:42:14;13.37;;;5.60;;
32639;SDS011;19049;52.524;11.468;2023-05-24T08:44:46;12.63;;;4.77;;
32639;SDS011;19049;52.524;11.468;2023-05-24T08:47:13;13.00;;;4.90;;
32639;SDS011;19049;52.524;11.468;2023-05-24T08:49:40;13.20;;;4.80;;
32639;SDS011;19049;52.524;11.468;2023-05-24T08:52:07;13.97;;;5.80;;
32639;SDS011;19049;52.524;11.468;2023-05-24T08:54:35;13.50;;;5.30;;
32639;SDS011;19049;52.524;11.468;2023-05-24T08:57:01;13.80;;;5.30;;
32639;SDS011;19049;52.524;11.468;2023-05-24T08:59:27;13.10;;;5.50;;
32639;SDS011;19049;52.524;11.468;2023-05-24T09:01:53;11.33;;;5.27;;
32639;SDS011;19049;52.524;11.468;2023-05-24T09:04:22;12.80;;;4.27;;
32639;SDS011;19049;52.524;11.468;2023-05-24T09:06:51;11.53;;;4.43;;
32639;SDS011;19049;52.524;11.468;2023-05-24T09:09:18;16.07;;;4.90;;
32639;SDS011;19049;52.524;11.468;2023-05-24T09:11:46;12.77;;;4.77;;
32639;SDS011;19049;52.524;11.468;2023-05-24T09:14:15;15.37;;;4.67;;
32639;SDS011;19049;52.524;11.468;2023-05-24T09:16:42;16.23;;;5.60;;
32639;SDS011;19049;52.524;11.468;2023-05-24T09:19:08;13.63;;;5.10;;
32639;SDS011;19049;52.524;11.468;2023-05-24T09:21:34;13.87;;;4.63;;
32639;SDS011;19049;52.524;11.468;2023-05-24T09:24:01;13.87;;;4.37;;
32639;SDS011;19049;52.524;11.468;2023-05-24T09:26:27;9.57;;;3.97;;
32639;SDS011;19049;52.524;11.468;2023-05-24T09:28:54;15.03;;;4.67;;
32639;SDS011;19049;52.524;11.468;2023-05-24T09:31:30;7.30;;;3.70;;
32639;SDS011;19049;52.524;11.468;2023-05-24T09:34:00;15.23;;;4.97;;
32639;SDS011;19049;52.524;11.468;2023-05-24T09:36:26;12.23;;;4.50;;
32639;SDS011;19049;52.524;11.468;2023-05-24T09:39:06;11.33;;;4.00;;
32639;SDS011;19049;52.524;11.468;2023-05-24T09:41:34;10.17;;;4.53;;
32639;SDS011;19049;52.524;11.468;2023-05-24T09:44:01;11.27;;;5.03;;
32639;SDS011;19049;52.524;11.468;2023-05-24T09:46:35;9.37;;;4.03;;
32639;SDS011;19049;52.524;11.468;2023-05-24T09:49:02;8.67;;;3.60;;
32639;SDS011;19049;52.524;11.468;2023-05-24T09:51:30;13.50;;;3.87;;
32639;SDS011;19049;52.524;11.468;2023-05-24T09:53:56;10.03;;;4.03;;
32639;SDS011;19049;52.524;11.468;2023-05-24T09:56:26;12.93;;;4.63;;
32639;SDS011;19049;52.524;11.468;2023-05-24T09:58:52;15.73;;;5.37;;
32639;SDS011;19049;52.524;11.468;2023-05-24T10:01:21;9.30;;;4.17;;
32639;SDS011;19049;52.524;11.468;2023-05-24T10:03:52;11.77;;;5.37;;
32639;SDS011;19049;52.524;11.468;2023-05-24T10:06:18;7.63;;;3.60;;
32639;SDS011;19049;52.524;11.468;2023-05-24T10:08:44;10.07;;;4.03;;
32639;SDS011;19049;52.524;11.468;2023-05-24T10:11:12;9.40;;;4.17;;
32639;SDS011;19049;52.524;11.468;2023-05-24T10:13:38;13.33;;;4.20;;
32639;SDS011;19049;52.524;11.468;2023-05-24T10:16:04;10.63;;;4.13;;
32639;SDS011;19049;52.524;11.468;2023-05-24T10:18:31;16.97;;;4.60;;
32639;SDS011;19049;52.524;11.468;2023-05-24T10:20:57;9.30;;;3.87;;
32639;SDS011;19049;52.524;11.468;2023-05-24T10:23:25;10.37;;;3.63;;
32639;SDS011;19049;52.524;11.468;2023-05-24T10:25:55;8.13;;;3.33;;
32639;SDS011;19049;52.524;11.468;2023-05-24T10:28:30;10.33;;;3.43;;
32639;SDS011;19049;52.524;11.468;2023-05-24T10:31:06;7.00;;;3.50;;
32639;SDS011;19049;52.524;11.468;2023-05-24T10:33:37;8.50;;;3.63;;
32639;SDS011;19049;52.524;11.468;2023-05-24T10:36:05;13.73;;;4.93;;
32639;SDS011;19049;52.524;11.468;2023-05-24T10:38:33;6.80;;;3.40;;
32639;SDS011;19049;52.524;11.468;2023-05-24T10:41:00;12.93;;;4.10;;
32639;SDS011;19049;52.524;11.468;2023-05-24T10:43:26;6.30;;;3.23;;
32639;SDS011;19049;52.524;11.468;2023-05-24T10:45:52;6.27;;;3.00;;
32639;SDS011;19049;52.524;11.468;2023-05-24T10:50:50;5.67;;;2.23;;
32639;SDS011;19049;52.524;11.468;2023-05-24T10:53:17;6.90;;;3.30;;
32639;SDS011;19049;52.524;11.468;2023-05-24T10:55:56;9.33;;;3.30;;
32639;SDS011;19049;52.524;11.468;2023-05-24T10:58:27;7.57;;;3.30;;
32639;SDS011;19049;52.524;11.468;2023-05-24T11:01:01;7.40;;;3.17;;
32639;SDS011;19049;52.524;11.468;2023-05-24T11:03:31;8.17;;;3.60;;
32639;SDS011;19049;52.524;11.468;2023-05-24T11:05:57;7.23;;;3.77;;
32639;SDS011;19049;52.524;11.468;2023-05-24T11:08:30;5.80;;;3.10;;
32639;SDS011;19049;52.524;11.468;2023-05-24T11:11:07;6.77;;;3.07;;
32639;SDS011;19049;52.524;11.468;2023-05-24T11:13:37;6.10;;;2.80;;
32639;SDS011;19049;52.524;11.468;2023-05-24T11:16:03;6.20;;;2.67;;
32639;SDS011;19049;52.524;11.468;2023-05-24T11:18:29;4.17;;;2.40;;
32639;SDS011;19049;52.524;11.468;2023-05-24T11:20:57;5.83;;;3.13;;
32639;SDS011;19049;52.524;11.468;2023-05-24T11:23:23;8.60;;;3.10;;
32639;SDS011;19049;52.524;11.468;2023-05-24T11:25:49;5.07;;;2.97;;
32639;SDS011;19049;52.524;11.468;2023-05-24T11:28:16;4.07;;;2.23;;
32639;SDS011;19049;52.524;11.468;2023-05-24T11:30:45;5.97;;;2.50;;
32639;SDS011;19049;52.524;11.468;2023-05-24T11:33:18;4.33;;;2.23;;
32639;SDS011;19049;52.524;11.468;2023-05-24T11:35:47;3.83;;;2.57;;
32639;SDS011;19049;52.524;11.468;2023-05-24T11:38:16;8.30;;;3.27;;
32639;SDS011;19049;52.524;11.468;2023-05-24T11:40:44;5.27;;;2.83;;
32639;SDS011;19049;52.524;11.468;2023-05-24T11:43:18;5.90;;;2.93;;
32639;SDS011;19049;52.524;11.468;2023-05-24T11:45:47;5.73;;;2.93;;
32639;SDS011;19049;52.524;11.468;2023-05-24T11:48:14;6.97;;;2.83;;
32639;SDS011;19049;52.524;11.468;2023-05-24T11:50:41;8.97;;;4.20;;
32639;SDS011;19049;52.524;11.468;2023-05-24T11:53:14;7.70;;;3.47;;
32639;SDS011;19049;52.524;11.468;2023-05-24T11:55:42;8.53;;;3.03;;
32639;SDS011;19049;52.524;11.468;2023-05-24T11:58:13;8.40;;;2.90;;
32639;SDS011;19049;52.524;11.468;2023-05-24T12:00:49;6.43;;;3.03;;
32639;SDS011;19049;52.524;11.468;2023-05-24T12:03:16;6.50;;;2.83;;
32639;SDS011;19049;52.524;11.468;2023-05-24T12:05:42;8.03;;;2.60;;
32639;SDS011;19049;52.524;11.468;2023-05-24T12:08:09;5.87;;;2.70;;
32639;SDS011;19049;52.524;11.468;2023-05-24T12:10:37;7.30;;;3.27;;
32639;SDS011;19049;52.524;11.468;2023-05-24T12:13:04;5.80;;;3.10;;
32639;SDS011;19049;52.524;11.468;2023-05-24T12:15:53;5.57;;;3.23;;
32639;SDS011;19049;52.524;11.468;2023-05-24T12:18:23;7.03;;;3.03;;
32639;SDS011;19049;52.524;11.468;2023-05-24T12:20:50;8.40;;;3.13;;
32639;SDS011;19049;52.524;11.468;2023-05-24T12:23:19;6.90;;;2.83;;
32639;SDS011;19049;52.524;11.468;2023-05-24T12:25:56;6.40;;;2.73;;
32639;SDS011;19049;52.524;11.468;2023-05-24T12:28:25;4.20;;;2.87;;
32639;SDS011;19049;52.524;11.468;2023-05-24T12:30:52;5.97;;;2.37;;
32639;SDS011;19049;52.524;11.468;2023-05-24T12:33:19;8.67;;;3.40;;
32639;SDS011;19049;52.524;11.468;2023-05-24T12:35:45;7.27;;;3.23;;
32639;SDS011;19049;52.524;11.468;2023-05-24T12:38:11;12.33;;;3.63;;
32639;SDS011;19049;52.524;11.468;2023-05-24T12:40:39;7.23;;;3.93;;
32639;SDS011;19049;52.524;11.468;2023-05-24T12:43:07;6.33;;;2.90;;
32639;SDS011;19049;52.524;11.468;2023-05-24T12:45:34;5.33;;;3.10;;
32639;SDS011;19049;52.524;11.468;2023-05-24T12:48:01;7.33;;;2.60;;
32639;SDS011;19049;52.524;11.468;2023-05-24T12:50:28;4.77;;;2.67;;
32639;SDS011;19049;52.524;11.468;2023-05-24T12:52:55;5.13;;;2.90;;
32639;SDS011;19049;52.524;11.468;2023-05-24T12:55:22;6.10;;;2.87;;
32639;SDS011;19049;52.524;11.468;2023-05-24T12:57:52;7.70;;;3.13;;
32639;SDS011;19049;52.524;11.468;2023-05-24T13:00:20;4.40;;;2.40;;
32639;SDS011;19049;52.524;11.468;2023-05-24T13:02:54;5.67;;;2.80;;
32639;SDS011;19049;52.524;11.468;2023-05-24T13:05:22;7.17;;;2.70;;
32639;SDS011;19049;52.524;11.468;2023-05-24T13:07:49;4.97;;;2.67;;
32639;SDS011;19049;52.524;11.468;2023-05-24T13:10:15;6.50;;;2.77;;
32639;SDS011;19049;52.524;11.468;2023-05-24T13:12:42;5.60;;;2.87;;
32639;SDS011;19049;52.524;11.468;2023-05-24T13:15:08;8.00;;;2.73;;
32639;SDS011;19049;52.524;11.468;2023-05-24T13:17:34;6.23;;;2.97;;
32639;SDS011;19049;52.524;11.468;2023-05-24T13:20:00;4.20;;;2.53;;
32639;SDS011;19049;52.524;11.468;2023-05-24T13:22:32;5.87;;;2.30;;
32639;SDS011;19049;52.524;11.468;2023-05-24T13:24:58;4.90;;;2.37;;
32639;SDS011;19049;52.524;11.468;2023-05-24T13:27:25;5.40;;;2.60;;
32639;SDS011;19049;52.524;11.468;2023-05-24T13:29:51;5.27;;;2.70;;
32639;SDS011;19049;52.524;11.468;2023-05-24T13:32:17;4.77;;;2.53;;
32639;SDS011;19049;52.524;11.468;2023-05-24T13:34:43;4.87;;;2.43;;
32639;SDS011;19049;52.524;11.468;2023-05-24T13:37:09;3.97;;;2.40;;
32639;SDS011;19049;52.524;11.468;2023-05-24T13:39:36;6.23;;;2.80;;
32639;SDS011;19049;52.524;11.468;2023-05-24T13:42:02;4.40;;;2.60;;
32639;SDS011;19049;52.524;11.468;2023-05-24T13:44:28;6.13;;;2.70;;
32639;SDS011;19049;52.524;11.468;2023-05-24T13:46:54;8.83;;;3.30;;
32639;SDS011;19049;52.524;11.468;2023-05-24T13:49:21;5.57;;;2.70;;
32639;SDS011;19049;52.524;11.468;2023-05-24T13:51:47;7.43;;;3.33;;
32639;SDS011;19049;52.524;11.468;2023-05-24T13:54:13;4.93;;;3.10;;
32639;SDS011;19049;52.524;11.468;2023-05-24T13:56:39;6.07;;;2.60;;
32639;SDS011;19049;52.524;11.468;2023-05-24T13:59:08;6.33;;;2.40;;
32639;SDS011;19049;52.524;11.468;2023-05-24T14:01:34;4.37;;;2.53;;
32639;SDS011;19049;52.524;11.468;2023-05-24T14:04:03;3.40;;;2.20;;
32639;SDS011;19049;52.524;11.468;2023-05-24T14:06:30;2.57;;;1.80;;
32639;SDS011;19049;52.524;11.468;2023-05-24T14:08:56;4.63;;;2.00;;
32639;SDS011;19049;52.524;11.468;2023-05-24T14:11:22;3.80;;;2.10;;
32639;SDS011;19049;52.524;11.468;2023-05-24T14:13:49;2.20;;;1.67;;
32639;SDS011;19049;52.524;11.468;2023-05-24T14:16:15;3.07;;;2.20;;
32639;SDS011;19049;52.524;11.468;2023-05-24T14:18:41;3.87;;;2.27;;
32639;SDS011;19049;52.524;11.468;2023-05-24T14:21:07;10.43;;;6.17;;
32639;SDS011;19049;52.524;11.468;2023-05-24T14:23:33;11.60;;;5.30;;
32639;SDS011;19049;52.524;11.468;2023-05-24T14:26:00;7.10;;;4.07;;
32639;SDS011;19049;52.524;11.468;2023-05-24T14:28:25;6.03;;;3.87;;
32639;SDS011;19049;52.524;11.468;2023-05-24T14:30:51;5.00;;;2.70;;
32639;SDS011;19049;52.524;11.468;2023-05-24T14:33:17;4.13;;;2.60;;
32639;SDS011;19049;52.524;11.468;2023-05-24T14:35:43;4.23;;;2.60;;
32639;SDS011;19049;52.524;11.468;2023-05-24T14:38:10;3.77;;;2.40;;
32639;SDS011;19049;52.524;11.468;2023-05-24T14:40:36;3.23;;;1.97;;
32639;SDS011;19049;52.524;11.468;2023-05-24T14:43:03;4.37;;;2.27;;
32639;SDS011;19049;52.524;11.468;2023-05-24T14:45:30;5.17;;;2.23;;
32639;SDS011;19049;52.524;11.468;2023-05-24T14:47:56;2.27;;;1.77;;